sensor_id;sensor_type;location;lat;lon;timestamp;pressure;altitude;pressure_sealevel;temperature;humidity
61528;BME280;47395;42.032;-8.634;2022-12-05T00:00:16;100380.72;;;9.81;69.07
61528;BME280;47395;42.032;-8.634;2022-12-05T00:02:17;100378.56;;;9.72;68.86
61528;BME280;47395;42.032;-8.634;2022-12-05T00:04:18;100379.66;;;9.68;69.30
61528;BME280;47395;42.032;-8.634;2022-12-05T00:06:21;100376.25;;;9.48;69.49
61528;BME280;47395;42.032;-8.634;2022-12-05T00:08:22;100383.63;;;9.59;69.66
61528;BME280;47395;42.032;-8.634;2022-12-05T00:10:23;100376.28;;;9.65;69.75
61528;BME280;47395;42.032;-8.634;2022-12-05T00:12:24;100362.56;;;9.59;69.60
61528;BME280;47395;42.032;-8.634;2022-12-05T00:14:24;100365.56;;;9.69;69.47
61528;BME280;47395;42.032;-8.634;2022-12-05T00:16:27;100366.34;;;9.71;69.38
61528;BME280;47395;42.032;-8.634;2022-12-05T00:18:28;100368.28;;;9.67;69.51
61528;BME280;47395;42.032;-8.634;2022-12-05T00:20:29;100366.88;;;9.77;69.17
61528;BME280;47395;42.032;-8.634;2022-12-05T00:22:30;100364.34;;;9.76;68.93
61528;BME280;47395;42.032;-8.634;2022-12-05T00:24:31;100359.22;;;9.73;69.22
61528;BME280;47395;42.032;-8.634;2022-12-05T00:26:33;100356.06;;;9.66;68.86
61528;BME280;47395;42.032;-8.634;2022-12-05T00:28:34;100361.94;;;9.71;68.87
61528;BME280;47395;42.032;-8.634;2022-12-05T00:30:39;100360.84;;;9.58;68.86
61528;BME280;47395;42.032;-8.634;2022-12-05T00:32:40;100346.69;;;9.43;68.88
61528;BME280;47395;42.032;-8.634;2022-12-05T00:34:41;100364.34;;;9.40;69.05
61528;BME280;47395;42.032;-8.634;2022-12-05T00:36:41;100376.19;;;9.32;69.17
61528;BME280;47395;42.032;-8.634;2022-12-05T00:38:42;100381.41;;;9.14;69.79
61528;BME280;47395;42.032;-8.634;2022-12-05T00:40:43;100388.38;;;8.96;70.78
61528;BME280;47395;42.032;-8.634;2022-12-05T00:42:44;100372.44;;;8.81;71.07
61528;BME280;47395;42.032;-8.634;2022-12-05T00:44:48;100365.81;;;8.72;71.56
61528;BME280;47395;42.032;-8.634;2022-12-05T00:46:49;100365.56;;;8.79;71.50
61528;BME280;47395;42.032;-8.634;2022-12-05T00:48:52;100361.84;;;8.83;71.74
61528;BME280;47395;42.032;-8.634;2022-12-05T00:51:01;100366.00;;;8.87;71.29
61528;BME280;47395;42.032;-8.634;2022-12-05T00:53:02;100368.22;;;8.96;71.85
61528;BME280;47395;42.032;-8.634;2022-12-05T00:55:03;100355.53;;;8.48;71.92
61528;BME280;47395;42.032;-8.634;2022-12-05T00:57:04;100355.06;;;8.59;72.09
61528;BME280;47395;42.032;-8.634;2022-12-05T00:59:06;100342.75;;;8.60;72.32
61528;BME280;47395;42.032;-8.634;2022-12-05T01:01:13;100354.38;;;8.73;71.66
61528;BME280;47395;42.032;-8.634;2022-12-05T01:03:15;100343.59;;;8.41;72.29
61528;BME280;47395;42.032;-8.634;2022-12-05T01:05:16;100349.06;;;8.56;71.91
61528;BME280;47395;42.032;-8.634;2022-12-05T01:07:17;100342.50;;;8.66;71.75
61528;BME280;47395;42.032;-8.634;2022-12-05T01:09:19;100343.91;;;8.54;72.00
61528;BME280;47395;42.032;-8.634;2022-12-05T01:11:20;100336.59;;;8.61;72.05
61528;BME280;47395;42.032;-8.634;2022-12-05T01:13:23;100329.56;;;8.61;71.74
61528;BME280;47395;42.032;-8.634;2022-12-05T01:15:24;100334.44;;;8.69;72.05
61528;BME280;47395;42.032;-8.634;2022-12-05T01:17:25;100326.38;;;8.74;71.98
61528;BME280;47395;42.032;-8.634;2022-12-05T01:19:29;100335.88;;;8.77;71.84
61528;BME280;47395;42.032;-8.634;2022-12-05T01:21:31;100312.75;;;8.66;71.48
61528;BME280;47395;42.032;-8.634;2022-12-05T01:23:32;100329.84;;;8.36;71.87
61528;BME280;47395;42.032;-8.634;2022-12-05T01:25:33;100322.25;;;8.30;71.89
61528;BME280;47395;42.032;-8.634;2022-12-05T01:27:34;100332.72;;;8.49;71.48
61528;BME280;47395;42.032;-8.634;2022-12-05T01:29:35;100321.41;;;8.48;71.73
61528;BME280;47395;42.032;-8.634;2022-12-05T01:31:37;100334.06;;;8.59;71.90
61528;BME280;47395;42.032;-8.634;2022-12-05T01:33:38;100323.09;;;8.49;71.84
61528;BME280;47395;42.032;-8.634;2022-12-05T01:35:40;100321.31;;;8.50;71.69
61528;BME280;47395;42.032;-8.634;2022-12-05T01:37:41;100332.31;;;8.58;72.18
61528;BME280;47395;42.032;-8.634;2022-12-05T01:39:42;100339.63;;;8.71;72.01
61528;BME280;47395;42.032;-8.634;2022-12-05T01:41:44;100346.38;;;8.77;71.98
61528;BME280;47395;42.032;-8.634;2022-12-05T01:44:05;100344.13;;;8.69;72.01
61528;BME280;47395;42.032;-8.634;2022-12-05T01:46:06;100348.44;;;8.70;72.23
61528;BME280;47395;42.032;-8.634;2022-12-05T01:48:30;100355.31;;;8.72;72.17
61528;BME280;47395;42.032;-8.634;2022-12-05T01:50:35;100355.31;;;8.72;72.15
61528;BME280;47395;42.032;-8.634;2022-12-05T01:52:37;100359.31;;;8.81;72.06
61528;BME280;47395;42.032;-8.634;2022-12-05T01:54:39;100352.75;;;8.71;72.11
61528;BME280;47395;42.032;-8.634;2022-12-05T01:56:43;100352.88;;;8.87;71.88
61528;BME280;47395;42.032;-8.634;2022-12-05T01:58:44;100338.91;;;8.86;71.67
61528;BME280;47395;42.032;-8.634;2022-12-05T02:00:46;100344.09;;;8.88;71.55
61528;BME280;47395;42.032;-8.634;2022-12-05T02:02:51;100343.34;;;9.04;71.35
61528;BME280;47395;42.032;-8.634;2022-12-05T02:05:09;100346.38;;;9.13;70.91
61528;BME280;47395;42.032;-8.634;2022-12-05T02:07:11;100353.41;;;9.13;70.59
61528;BME280;47395;42.032;-8.634;2022-12-05T02:09:12;100352.19;;;8.83;69.97
61528;BME280;47395;42.032;-8.634;2022-12-05T02:11:13;100350.34;;;8.85;70.62
61528;BME280;47395;42.032;-8.634;2022-12-05T02:14:20;100346.06;;;8.83;70.70
61528;BME280;47395;42.032;-8.634;2022-12-05T02:16:27;100340.69;;;8.86;70.61
61528;BME280;47395;42.032;-8.634;2022-12-05T02:24:43;100346.25;;;8.80;70.29
61528;BME280;47395;42.032;-8.634;2022-12-05T02:31:35;100347.69;;;8.68;70.68
61528;BME280;47395;42.032;-8.634;2022-12-05T02:34:26;100342.41;;;8.68;70.61
61528;BME280;47395;42.032;-8.634;2022-12-05T02:36:47;100343.72;;;8.38;71.32
61528;BME280;47395;42.032;-8.634;2022-12-05T02:39:16;100347.91;;;8.42;71.37
61528;BME280;47395;42.032;-8.634;2022-12-05T02:41:30;100343.16;;;8.31;72.99
61528;BME280;47395;42.032;-8.634;2022-12-05T02:44:00;100341.41;;;8.51;73.38
61528;BME280;47395;42.032;-8.634;2022-12-05T02:46:13;100342.88;;;8.76;72.15
61528;BME280;47395;42.032;-8.634;2022-12-05T02:48:17;100348.31;;;8.73;71.48
61528;BME280;47395;42.032;-8.634;2022-12-05T02:50:22;100349.06;;;8.75;71.30
61528;BME280;47395;42.032;-8.634;2022-12-05T02:52:25;100345.50;;;8.76;70.91
61528;BME280;47395;42.032;-8.634;2022-12-05T02:54:36;100347.25;;;8.77;70.91
61528;BME280;47395;42.032;-8.634;2022-12-05T02:56:38;100352.75;;;8.90;70.42
61528;BME280;47395;42.032;-8.634;2022-12-05T02:58:46;100345.41;;;8.97;70.48
61528;BME280;47395;42.032;-8.634;2022-12-05T03:00:49;100344.16;;;8.86;69.94
61528;BME280;47395;42.032;-8.634;2022-12-05T03:02:55;100328.28;;;8.70;70.15
61528;BME280;47395;42.032;-8.634;2022-12-05T03:05:08;100339.69;;;8.69;70.67
61528;BME280;47395;42.032;-8.634;2022-12-05T03:07:15;100345.69;;;8.73;70.76
61528;BME280;47395;42.032;-8.634;2022-12-05T03:09:31;100330.75;;;8.73;71.10
61528;BME280;47395;42.032;-8.634;2022-12-05T03:11:41;100333.88;;;8.82;70.68
61528;BME280;47395;42.032;-8.634;2022-12-05T03:13:54;100346.16;;;8.81;70.22
61528;BME280;47395;42.032;-8.634;2022-12-05T03:16:02;100323.91;;;8.88;70.19
61528;BME280;47395;42.032;-8.634;2022-12-05T03:18:11;100333.44;;;9.09;70.01
61528;BME280;47395;42.032;-8.634;2022-12-05T03:20:17;100330.53;;;9.15;69.61
61528;BME280;47395;42.032;-8.634;2022-12-05T03:22:30;100331.09;;;9.22;69.38
61528;BME280;47395;42.032;-8.634;2022-12-05T03:24:36;100325.75;;;9.23;69.17
61528;BME280;47395;42.032;-8.634;2022-12-05T03:27:13;100336.41;;;9.20;69.23
61528;BME280;47395;42.032;-8.634;2022-12-05T03:32:02;100338.34;;;9.17;69.04
61528;BME280;47395;42.032;-8.634;2022-12-05T03:34:07;100339.16;;;8.99;69.96
61528;BME280;47395;42.032;-8.634;2022-12-05T03:36:19;100347.13;;;9.16;69.70
61528;BME280;47395;42.032;-8.634;2022-12-05T03:38:50;100335.19;;;9.10;70.21
61528;BME280;47395;42.032;-8.634;2022-12-05T03:43:28;100335.41;;;9.40;70.46
61528;BME280;47395;42.032;-8.634;2022-12-05T03:45:38;100339.91;;;9.21;71.55
61528;BME280;47395;42.032;-8.634;2022-12-05T03:48:03;100323.44;;;9.35;71.65
61528;BME280;47395;42.032;-8.634;2022-12-05T03:50:27;100318.31;;;9.49;71.02
61528;BME280;47395;42.032;-8.634;2022-12-05T03:52:33;100315.94;;;9.45;71.29
61528;BME280;47395;42.032;-8.634;2022-12-05T03:54:48;100321.25;;;9.61;71.29
61528;BME280;47395;42.032;-8.634;2022-12-05T03:57:01;100310.31;;;9.69;71.26
61528;BME280;47395;42.032;-8.634;2022-12-05T03:59:15;100300.53;;;9.72;70.74
61528;BME280;47395;42.032;-8.634;2022-12-05T04:01:21;100322.13;;;9.95;70.85
61528;BME280;47395;42.032;-8.634;2022-12-05T04:03:38;100319.81;;;9.89;69.59
61528;BME280;47395;42.032;-8.634;2022-12-05T04:05:53;100343.91;;;9.81;70.37
61528;BME280;47395;42.032;-8.634;2022-12-05T04:08:00;100350.69;;;9.85;68.94
61528;BME280;47395;42.032;-8.634;2022-12-05T04:10:11;100340.75;;;10.08;68.83
61528;BME280;47395;42.032;-8.634;2022-12-05T04:12:21;100335.00;;;9.84;69.47
61528;BME280;47395;42.032;-8.634;2022-12-05T04:14:29;100331.69;;;9.80;69.75
61528;BME280;47395;42.032;-8.634;2022-12-05T04:16:59;100337.22;;;9.91;69.80
61528;BME280;47395;42.032;-8.634;2022-12-05T04:19:09;100333.69;;;9.75;70.30
61528;BME280;47395;42.032;-8.634;2022-12-05T04:21:12;100333.16;;;9.68;70.57
61528;BME280;47395;42.032;-8.634;2022-12-05T04:23:33;100327.34;;;9.79;70.76
61528;BME280;47395;42.032;-8.634;2022-12-05T04:25:42;100329.94;;;9.97;70.25
61528;BME280;47395;42.032;-8.634;2022-12-05T04:27:53;100321.38;;;10.09;69.77
61528;BME280;47395;42.032;-8.634;2022-12-05T04:30:05;100322.59;;;10.19;70.03
61528;BME280;47395;42.032;-8.634;2022-12-05T04:32:09;100319.22;;;10.34;69.79
61528;BME280;47395;42.032;-8.634;2022-12-05T04:34:14;100317.94;;;10.41;69.35
61528;BME280;47395;42.032;-8.634;2022-12-05T04:36:22;100318.16;;;10.20;69.63
61528;BME280;47395;42.032;-8.634;2022-12-05T04:38:38;100309.09;;;10.26;69.63
61528;BME280;47395;42.032;-8.634;2022-12-05T04:40:48;100316.81;;;10.13;69.25
61528;BME280;47395;42.032;-8.634;2022-12-05T04:42:50;100328.53;;;10.23;69.22
61528;BME280;47395;42.032;-8.634;2022-12-05T04:44:56;100310.13;;;10.23;69.09
61528;BME280;47395;42.032;-8.634;2022-12-05T04:47:02;100317.84;;;9.76;69.69
61528;BME280;47395;42.032;-8.634;2022-12-05T04:49:07;100312.59;;;9.59;70.35
61528;BME280;47395;42.032;-8.634;2022-12-05T04:51:13;100309.03;;;9.77;70.99
61528;BME280;47395;42.032;-8.634;2022-12-05T04:53:16;100306.53;;;9.74;71.74
61528;BME280;47395;42.032;-8.634;2022-12-05T04:55:23;100306.13;;;9.82;71.34
61528;BME280;47395;42.032;-8.634;2022-12-05T04:57:32;100297.97;;;10.04;70.74
61528;BME280;47395;42.032;-8.634;2022-12-05T04:59:36;100301.84;;;9.97;70.80
61528;BME280;47395;42.032;-8.634;2022-12-05T05:06:24;100319.66;;;9.92;69.99
61528;BME280;47395;42.032;-8.634;2022-12-05T05:08:28;100326.31;;;9.99;69.23
61528;BME280;47395;42.032;-8.634;2022-12-05T05:10:36;100328.78;;;9.85;69.68
61528;BME280;47395;42.032;-8.634;2022-12-05T05:12:39;100336.56;;;9.70;70.25
61528;BME280;47395;42.032;-8.634;2022-12-05T05:14:40;100341.53;;;9.59;70.70
61528;BME280;47395;42.032;-8.634;2022-12-05T05:16:41;100338.44;;;9.68;70.45
61528;BME280;47395;42.032;-8.634;2022-12-05T05:18:42;100337.16;;;9.75;70.37
61528;BME280;47395;42.032;-8.634;2022-12-05T05:20:43;100343.09;;;9.63;70.65
61528;BME280;47395;42.032;-8.634;2022-12-05T05:22:47;100338.09;;;9.74;71.00
61528;BME280;47395;42.032;-8.634;2022-12-05T05:24:47;100328.72;;;9.86;70.65
61528;BME280;47395;42.032;-8.634;2022-12-05T05:26:48;100335.13;;;9.98;70.61
61528;BME280;47395;42.032;-8.634;2022-12-05T05:28:50;100327.53;;;9.58;71.30
61528;BME280;47395;42.032;-8.634;2022-12-05T05:30:51;100334.53;;;9.75;71.31
61528;BME280;47395;42.032;-8.634;2022-12-05T05:32:52;100329.31;;;9.91;70.68
61528;BME280;47395;42.032;-8.634;2022-12-05T05:34:53;100330.03;;;9.95;70.61
61528;BME280;47395;42.032;-8.634;2022-12-05T05:36:54;100334.19;;;9.48;71.38
61528;BME280;47395;42.032;-8.634;2022-12-05T05:38:57;100334.69;;;9.90;70.38
61528;BME280;47395;42.032;-8.634;2022-12-05T05:40:58;100335.84;;;9.84;70.34
61528;BME280;47395;42.032;-8.634;2022-12-05T05:42:59;100335.41;;;10.10;69.80
61528;BME280;47395;42.032;-8.634;2022-12-05T05:45:00;100330.06;;;10.11;69.69
61528;BME280;47395;42.032;-8.634;2022-12-05T05:47:00;100328.59;;;10.05;69.73
61528;BME280;47395;42.032;-8.634;2022-12-05T05:49:01;100331.28;;;9.70;70.74
61528;BME280;47395;42.032;-8.634;2022-12-05T05:51:04;100326.66;;;10.09;70.04
61528;BME280;47395;42.032;-8.634;2022-12-05T05:53:05;100318.09;;;10.22;69.70
61528;BME280;47395;42.032;-8.634;2022-12-05T05:55:06;100314.97;;;10.31;69.58
61528;BME280;47395;42.032;-8.634;2022-12-05T05:57:08;100312.72;;;10.07;69.57
61528;BME280;47395;42.032;-8.634;2022-12-05T05:59:09;100310.03;;;10.09;69.62
61528;BME280;47395;42.032;-8.634;2022-12-05T06:01:11;100309.03;;;10.27;69.71
61528;BME280;47395;42.032;-8.634;2022-12-05T06:03:12;100308.44;;;10.22;69.93
61528;BME280;47395;42.032;-8.634;2022-12-05T06:05:13;100306.81;;;10.36;69.55
61528;BME280;47395;42.032;-8.634;2022-12-05T06:07:14;100301.13;;;10.43;69.50
61528;BME280;47395;42.032;-8.634;2022-12-05T06:09:15;100302.56;;;10.17;70.12
61528;BME280;47395;42.032;-8.634;2022-12-05T06:11:19;100308.59;;;10.19;70.46
61528;BME280;47395;42.032;-8.634;2022-12-05T06:13:20;100305.38;;;10.30;70.38
61528;BME280;47395;42.032;-8.634;2022-12-05T06:15:21;100288.69;;;10.47;69.80
61528;BME280;47395;42.032;-8.634;2022-12-05T06:17:22;100294.28;;;10.57;70.03
61528;BME280;47395;42.032;-8.634;2022-12-05T06:19:23;100294.41;;;10.38;69.92
61528;BME280;47395;42.032;-8.634;2022-12-05T06:21:23;100293.56;;;10.37;70.16
61528;BME280;47395;42.032;-8.634;2022-12-05T06:23:25;100303.13;;;10.56;69.67
61528;BME280;47395;42.032;-8.634;2022-12-05T06:25:26;100297.59;;;10.77;68.78
61528;BME280;47395;42.032;-8.634;2022-12-05T06:27:28;100299.00;;;10.82;68.12
61528;BME280;47395;42.032;-8.634;2022-12-05T06:29:30;100292.06;;;10.49;68.46
61528;BME280;47395;42.032;-8.634;2022-12-05T06:31:31;100286.22;;;10.44;69.55
61528;BME280;47395;42.032;-8.634;2022-12-05T06:33:33;100282.41;;;10.16;70.22
61528;BME280;47395;42.032;-8.634;2022-12-05T06:35:34;100274.19;;;10.38;70.26
61528;BME280;47395;42.032;-8.634;2022-12-05T06:37:36;100275.22;;;10.36;70.32
61528;BME280;47395;42.032;-8.634;2022-12-05T06:39:37;100274.59;;;10.48;70.17
61528;BME280;47395;42.032;-8.634;2022-12-05T06:41:38;100269.59;;;10.26;70.16
61528;BME280;47395;42.032;-8.634;2022-12-05T06:43:39;100268.44;;;10.48;69.62
61528;BME280;47395;42.032;-8.634;2022-12-05T06:45:40;100272.19;;;10.60;69.70
61528;BME280;47395;42.032;-8.634;2022-12-05T06:47:41;100278.13;;;10.63;69.29
61528;BME280;47395;42.032;-8.634;2022-12-05T06:49:42;100278.13;;;10.79;69.54
61528;BME280;47395;42.032;-8.634;2022-12-05T06:51:43;100282.50;;;10.95;68.76
61528;BME280;47395;42.032;-8.634;2022-12-05T06:53:44;100282.06;;;10.87;68.85
61528;BME280;47395;42.032;-8.634;2022-12-05T06:55:57;100275.31;;;11.13;68.48
61528;BME280;47395;42.032;-8.634;2022-12-05T06:57:58;100284.97;;;10.98;68.65
61528;BME280;47395;42.032;-8.634;2022-12-05T06:59:59;100288.97;;;10.73;68.02
61528;BME280;47395;42.032;-8.634;2022-12-05T07:02:18;100286.44;;;10.88;68.21
61528;BME280;47395;42.032;-8.634;2022-12-05T07:04:21;100283.72;;;10.89;67.88
61528;BME280;47395;42.032;-8.634;2022-12-05T07:06:24;100288.56;;;10.81;68.15
61528;BME280;47395;42.032;-8.634;2022-12-05T07:08:26;100297.50;;;10.78;68.58
61528;BME280;47395;42.032;-8.634;2022-12-05T07:10:27;100292.03;;;10.81;68.64
61528;BME280;47395;42.032;-8.634;2022-12-05T07:12:27;100291.91;;;10.68;68.99
61528;BME280;47395;42.032;-8.634;2022-12-05T07:14:28;100298.50;;;10.43;69.43
61528;BME280;47395;42.032;-8.634;2022-12-05T07:16:29;100293.31;;;10.42;69.97
61528;BME280;47395;42.032;-8.634;2022-12-05T07:18:30;100287.16;;;10.59;69.71
61528;BME280;47395;42.032;-8.634;2022-12-05T07:20:32;100288.25;;;10.71;69.50
61528;BME280;47395;42.032;-8.634;2022-12-05T07:22:35;100286.72;;;10.67;69.13
61528;BME280;47395;42.032;-8.634;2022-12-05T07:24:36;100289.25;;;10.68;69.04
61528;BME280;47395;42.032;-8.634;2022-12-05T07:26:37;100275.16;;;10.69;68.87
61528;BME280;47395;42.032;-8.634;2022-12-05T07:28:38;100274.91;;;10.74;68.93
61528;BME280;47395;42.032;-8.634;2022-12-05T07:30:39;100266.06;;;10.59;69.04
61528;BME280;47395;42.032;-8.634;2022-12-05T07:32:40;100269.53;;;10.43;69.74
61528;BME280;47395;42.032;-8.634;2022-12-05T07:34:40;100262.06;;;10.36;70.51
61528;BME280;47395;42.032;-8.634;2022-12-05T07:36:41;100262.59;;;10.58;70.09
61528;BME280;47395;42.032;-8.634;2022-12-05T07:38:43;100263.16;;;10.64;69.52
61528;BME280;47395;42.032;-8.634;2022-12-05T07:40:44;100269.25;;;10.80;68.95
61528;BME280;47395;42.032;-8.634;2022-12-05T07:42:47;100274.16;;;10.87;68.52
61528;BME280;47395;42.032;-8.634;2022-12-05T07:44:48;100260.28;;;10.99;68.84
61528;BME280;47395;42.032;-8.634;2022-12-05T07:46:48;100263.13;;;10.80;69.19
61528;BME280;47395;42.032;-8.634;2022-12-05T07:48:49;100265.78;;;10.80;69.26
61528;BME280;47395;42.032;-8.634;2022-12-05T07:50:51;100264.66;;;10.84;68.96
61528;BME280;47395;42.032;-8.634;2022-12-05T07:52:52;100266.00;;;10.91;68.85
61528;BME280;47395;42.032;-8.634;2022-12-05T07:54:52;100256.34;;;10.92;68.87
61528;BME280;47395;42.032;-8.634;2022-12-05T07:56:53;100272.63;;;10.99;68.50
61528;BME280;47395;42.032;-8.634;2022-12-05T07:58:54;100267.50;;;11.12;68.23
61528;BME280;47395;42.032;-8.634;2022-12-05T08:00:55;100272.94;;;11.39;67.72
61528;BME280;47395;42.032;-8.634;2022-12-05T08:02:56;100278.22;;;11.54;66.79
61528;BME280;47395;42.032;-8.634;2022-12-05T08:04:57;100275.19;;;11.45;67.36
61528;BME280;47395;42.032;-8.634;2022-12-05T08:06:58;100281.13;;;11.49;66.92
61528;BME280;47395;42.032;-8.634;2022-12-05T08:08:58;100278.53;;;11.33;66.65
61528;BME280;47395;42.032;-8.634;2022-12-05T08:11:07;100276.78;;;11.48;66.43
61528;BME280;47395;42.032;-8.634;2022-12-05T08:13:08;100284.69;;;11.48;66.79
61528;BME280;47395;42.032;-8.634;2022-12-05T08:15:10;100293.66;;;11.60;66.44
61528;BME280;47395;42.032;-8.634;2022-12-05T08:17:10;100288.53;;;11.28;66.45
61528;BME280;47395;42.032;-8.634;2022-12-05T08:19:12;100297.16;;;11.60;65.97
61528;BME280;47395;42.032;-8.634;2022-12-05T08:21:17;100291.19;;;11.42;66.84
61528;BME280;47395;42.032;-8.634;2022-12-05T08:23:18;100287.81;;;11.40;66.86
61528;BME280;47395;42.032;-8.634;2022-12-05T08:25:19;100290.91;;;11.32;66.34
61528;BME280;47395;42.032;-8.634;2022-12-05T08:27:20;100288.53;;;11.28;66.98
61528;BME280;47395;42.032;-8.634;2022-12-05T08:29:21;100286.44;;;11.18;67.36
61528;BME280;47395;42.032;-8.634;2022-12-05T08:31:23;100285.19;;;11.55;67.11
61528;BME280;47395;42.032;-8.634;2022-12-05T08:33:24;100283.31;;;11.86;66.28
61528;BME280;47395;42.032;-8.634;2022-12-05T08:35:24;100282.00;;;12.08;65.87
61528;BME280;47395;42.032;-8.634;2022-12-05T08:37:25;100273.50;;;12.32;64.76
61528;BME280;47395;42.032;-8.634;2022-12-05T08:39:26;100285.53;;;12.50;64.00
61528;BME280;47395;42.032;-8.634;2022-12-05T08:41:27;100294.28;;;12.51;63.71
61528;BME280;47395;42.032;-8.634;2022-12-05T08:43:30;100290.00;;;12.35;63.81
61528;BME280;47395;42.032;-8.634;2022-12-05T08:45:31;100290.22;;;12.60;64.19
61528;BME280;47395;42.032;-8.634;2022-12-05T08:47:32;100300.03;;;12.58;64.16
61528;BME280;47395;42.032;-8.634;2022-12-05T08:49:32;100310.25;;;12.49;63.35
61528;BME280;47395;42.032;-8.634;2022-12-05T08:51:33;100314.28;;;12.70;62.91
61528;BME280;47395;42.032;-8.634;2022-12-05T08:53:35;100318.16;;;12.91;62.48
61528;BME280;47395;42.032;-8.634;2022-12-05T08:55:36;100315.13;;;13.11;62.41
61528;BME280;47395;42.032;-8.634;2022-12-05T08:57:37;100319.00;;;13.32;62.66
61528;BME280;47395;42.032;-8.634;2022-12-05T08:59:38;100329.81;;;13.29;62.52
61528;BME280;47395;42.032;-8.634;2022-12-05T09:01:38;100320.25;;;13.67;61.84
61528;BME280;47395;42.032;-8.634;2022-12-05T09:03:42;100324.31;;;13.45;62.10
61528;BME280;47395;42.032;-8.634;2022-12-05T09:05:43;100322.88;;;13.67;61.48
61528;BME280;47395;42.032;-8.634;2022-12-05T09:07:44;100333.03;;;13.74;61.55
61528;BME280;47395;42.032;-8.634;2022-12-05T09:09:45;100337.28;;;13.76;61.61
61528;BME280;47395;42.032;-8.634;2022-12-05T09:11:45;100339.06;;;14.02;60.38
61528;BME280;47395;42.032;-8.634;2022-12-05T09:13:49;100336.44;;;14.15;60.12
61528;BME280;47395;42.032;-8.634;2022-12-05T09:15:51;100332.28;;;14.10;60.09
61528;BME280;47395;42.032;-8.634;2022-12-05T09:17:51;100342.03;;;14.23;59.84
61528;BME280;47395;42.032;-8.634;2022-12-05T09:19:52;100336.38;;;14.28;60.15
61528;BME280;47395;42.032;-8.634;2022-12-05T09:21:54;100333.31;;;14.34;59.89
61528;BME280;47395;42.032;-8.634;2022-12-05T09:23:57;100336.44;;;14.52;59.65
61528;BME280;47395;42.032;-8.634;2022-12-05T09:25:58;100334.56;;;14.41;59.48
61528;BME280;47395;42.032;-8.634;2022-12-05T09:28:02;100332.00;;;14.53;58.88
61528;BME280;47395;42.032;-8.634;2022-12-05T09:30:04;100331.44;;;14.23;59.47
61528;BME280;47395;42.032;-8.634;2022-12-05T09:32:05;100332.50;;;14.20;59.99
61528;BME280;47395;42.032;-8.634;2022-12-05T09:34:06;100337.88;;;14.32;59.62
61528;BME280;47395;42.032;-8.634;2022-12-05T09:36:15;100338.09;;;14.29;59.98
61528;BME280;47395;42.032;-8.634;2022-12-05T09:38:17;100338.44;;;14.11;60.01
61528;BME280;47395;42.032;-8.634;2022-12-05T09:40:18;100333.88;;;13.87;60.77
61528;BME280;47395;42.032;-8.634;2022-12-05T09:42:47;100347.44;;;13.95;60.77
61528;BME280;47395;42.032;-8.634;2022-12-05T09:47:45;100342.78;;;13.60;62.54
61528;BME280;47395;42.032;-8.634;2022-12-05T09:49:25;100348.22;;;13.44;62.62
61528;BME280;47395;42.032;-8.634;2022-12-05T09:51:26;100346.91;;;13.51;62.45
61528;BME280;47395;42.032;-8.634;2022-12-05T09:53:36;100343.56;;;13.35;62.85
61528;BME280;47395;42.032;-8.634;2022-12-05T09:56:12;100347.03;;;13.35;63.06
61528;BME280;47395;42.032;-8.634;2022-12-05T09:58:50;100341.53;;;13.38;63.21
61528;BME280;47395;42.032;-8.634;2022-12-05T10:00:58;100338.91;;;13.38;63.16
61528;BME280;47395;42.032;-8.634;2022-12-05T10:03:24;100341.34;;;13.41;63.10
61528;BME280;47395;42.032;-8.634;2022-12-05T10:05:46;100336.06;;;13.41;62.63
61528;BME280;47395;42.032;-8.634;2022-12-05T10:08:07;100335.38;;;13.52;62.77
61528;BME280;47395;42.032;-8.634;2022-12-05T10:10:31;100331.03;;;13.90;62.01
61528;BME280;47395;42.032;-8.634;2022-12-05T10:12:52;100327.22;;;13.94;61.82
61528;BME280;47395;42.032;-8.634;2022-12-05T10:15:07;100320.63;;;14.13;61.72
61528;BME280;47395;42.032;-8.634;2022-12-05T10:17:33;100326.44;;;14.69;60.30
61528;BME280;47395;42.032;-8.634;2022-12-05T10:19:39;100312.84;;;14.73;60.53
61528;BME280;47395;42.032;-8.634;2022-12-05T10:24:03;100320.59;;;14.77;60.60
61528;BME280;47395;42.032;-8.634;2022-12-05T10:26:09;100322.38;;;15.25;60.02
61528;BME280;47395;42.032;-8.634;2022-12-05T10:30:31;100322.00;;;15.77;58.61
61528;BME280;47395;42.032;-8.634;2022-12-05T10:35:06;100333.88;;;16.30;57.36
61528;BME280;47395;42.032;-8.634;2022-12-05T10:37:21;100331.56;;;16.37;57.37
61528;BME280;47395;42.032;-8.634;2022-12-05T10:39:22;100341.72;;;16.31;56.80
61528;BME280;47395;42.032;-8.634;2022-12-05T10:41:23;100344.78;;;16.04;57.22
61528;BME280;47395;42.032;-8.634;2022-12-05T10:43:26;100343.06;;;16.14;56.61
61528;BME280;47395;42.032;-8.634;2022-12-05T10:45:28;100344.16;;;16.35;56.29
61528;BME280;47395;42.032;-8.634;2022-12-05T10:47:29;100346.06;;;16.44;56.37
61528;BME280;47395;42.032;-8.634;2022-12-05T10:49:31;100338.00;;;16.23;56.47
61528;BME280;47395;42.032;-8.634;2022-12-05T10:51:33;100340.66;;;16.23;56.55
61528;BME280;47395;42.032;-8.634;2022-12-05T10:53:49;100334.22;;;15.91;56.24
61528;BME280;47395;42.032;-8.634;2022-12-05T10:55:52;100343.56;;;15.61;57.26
61528;BME280;47395;42.032;-8.634;2022-12-05T10:58:14;100333.75;;;15.38;58.60
61528;BME280;47395;42.032;-8.634;2022-12-05T11:00:20;100332.72;;;15.17;59.04
61528;BME280;47395;42.032;-8.634;2022-12-05T11:02:26;100329.72;;;14.97;59.30
61528;BME280;47395;42.032;-8.634;2022-12-05T11:04:29;100324.88;;;15.15;59.46
61528;BME280;47395;42.032;-8.634;2022-12-05T11:06:31;100324.75;;;15.17;59.55
61528;BME280;47395;42.032;-8.634;2022-12-05T11:08:33;100320.97;;;15.44;59.18
61528;BME280;47395;42.032;-8.634;2022-12-05T11:10:35;100314.47;;;15.59;58.23
61528;BME280;47395;42.032;-8.634;2022-12-05T11:12:43;100313.00;;;15.44;58.88
61528;BME280;47395;42.032;-8.634;2022-12-05T11:15:04;100313.31;;;15.75;58.67
61528;BME280;47395;42.032;-8.634;2022-12-05T11:17:05;100312.25;;;15.42;58.42
61528;BME280;47395;42.032;-8.634;2022-12-05T11:19:29;100309.69;;;15.76;58.69
61528;BME280;47395;42.032;-8.634;2022-12-05T11:21:40;100298.56;;;15.93;57.61